Time,TemperatureF,DewpointF,PressureIn,WindDirection,WindDirectionDegrees,WindSpeedMPH,WindSpeedGustMPH,Humidity,HourlyPrecipIn,Conditions,Clouds,dailyrainin,SoftwareType,DateUTC
2013-04-27 00:03:00,70.0,35.4,30.04,WNW,285,4.0,6.0,28,0.00,,---,0.00,VWS V14.01,2013-04-27 07:03:00,
2013-04-27 00:08:00,69.8,35.3,30.04,West,259,2.0,6.0,28,0.00,,---,0.00,VWS V14.01,2013-04-27 07:08:00,
2013-04-27 00:13:00,69.6,35.1,30.04,WSW,246,1.0,6.0,28,0.00,,---,0.00,VWS V14.01,2013-04-27 07:13:00,
2013-04-27 00:18:00,69.2,35.6,30.04,SSW,208,0.0,6.0,29,0.00,,---,0.00,VWS V14.01,2013-04-27 07:18:00,
2013-04-27 00:23:00,68.9,35.4,30.04,WSW,249,0.0,6.0,29,0.00,,---,0.00,VWS V14.01,2013-04-27 07:23:00,
2013-04-27 00:28:00,68.5,35.0,30.04,SW,234,2.0,6.0,29,0.00,,---,0.00,VWS V14.01,2013-04-27 07:28:00,
2013-04-27 00:33:00,68.2,34.8,30.04,SW,217,2.0,6.0,29,0.00,,---,0.00,VWS V14.01,2013-04-27 07:33:00,
2013-04-27 00:38:00,67.5,35.8,30.04,SSW,197,0.0,6.0,31,0.00,,---,0.00,VWS V14.01,2013-04-27 07:38:00,
2013-04-27 00:43:00,66.5,36.5,30.04,SSE,162,1.0,6.0,33,0.00,,---,0.00,VWS V14.01,2013-04-27 07:43:00,
2013-04-27 00:48:00,66.4,34.9,30.04,SW,234,1.0,6.0,31,0.00,,---,0.00,VWS V14.01,2013-04-27 07:48:00,
2013-04-27 00:53:00,66.8,36.8,30.04,SW,218,0.0,6.0,33,0.00,,---,0.00,VWS V14.01,2013-04-27 07:53:00,
2013-04-27 00:58:00,66.8,35.2,30.04,SW,233,2.0,7.0,31,0.00,,---,0.00,VWS V14.01,2013-04-27 07:58:00,
2013-04-27 01:03:00,66.7,35.1,30.03,SW,231,2.0,3.0,31,0.00,,---,0.00,VWS V14.01,2013-04-27 08:03:00,
2013-04-27 01:08:00,66.3,35.6,30.03,SW,224,2.0,3.0,32,0.00,,---,0.00,VWS V14.01,2013-04-27 08:08:00,
2013-04-27 01:13:00,66.5,35.0,30.03,SW,222,2.0,8.0,31,0.00,,---,0.00,VWS V14.01,2013-04-27 08:13:00,
2013-04-27 01:18:00,66.0,35.3,30.03,SW,219,1.0,8.0,32,0.00,,---,0.00,VWS V14.01,2013-04-27 08:18:00,
2013-04-27 01:23:00,66.0,34.5,30.03,West,281,2.0,8.0,31,0.00,,---,0.00,VWS V14.01,2013-04-27 08:23:00,
2013-04-27 01:28:00,66.6,35.0,30.03,WSW,257,1.0,8.0,31,0.00,,---,0.00,VWS V14.01,2013-04-27 08:28:00,
2013-04-27 01:33:00,66.8,35.2,30.03,West,281,2.0,8.0,31,0.00,,---,0.00,VWS V14.01,2013-04-27 08:33:00,
2013-04-27 01:38:00,66.7,35.1,30.03,SW,234,1.0,8.0,31,0.00,,---,0.00,VWS V14.01,2013-04-27 08:38:00,
2013-04-27 01:43:00,66.8,34.4,30.03,SW,219,2.0,8.0,30,0.00,,---,0.00,VWS V14.01,2013-04-27 08:43:00,
2013-04-27 01:48:00,66.6,35.0,30.02,WSW,238,1.0,8.0,31,0.00,,---,0.00,VWS V14.01,2013-04-27 08:48:00,
2013-04-27 01:53:00,66.5,35.0,30.02,WSW,240,0.0,8.0,31,0.00,,---,0.00,VWS V14.01,2013-04-27 08:53:00,
2013-04-27 01:58:00,66.6,35.0,30.02,WSW,240,2.0,8.0,31,0.00,,---,0.00,VWS V14.01,2013-04-27 08:58:00,
2013-04-27 02:03:00,66.5,35.0,30.02,SW,222,1.0,1.0,31,0.00,,---,0.00,VWS V14.01,2013-04-27 09:03:00,
2013-04-27 02:08:00,66.3,34.8,30.02,SW,230,0.0,1.0,31,0.00,,---,0.00,VWS V14.01,2013-04-27 09:08:00,
2013-04-27 02:13:00,66.2,33.9,30.02,WSW,257,1.0,2.0,30,0.00,,---,0.00,VWS V14.01,2013-04-27 09:13:00,
2013-04-27 02:18:00,65.9,34.4,30.02,SSE,162,1.0,2.0,31,0.00,,---,0.00,VWS V14.01,2013-04-27 09:18:00,
2013-04-27 02:23:00,65.7,34.3,30.01,SSW,210,1.0,2.0,31,0.00,,---,0.00,VWS V14.01,2013-04-27 09:23:00,
2013-04-27 02:28:00,65.1,34.5,30.01,South,176,2.0,3.0,32,0.00,,---,0.00,VWS V14.01,2013-04-27 09:28:00,
2013-04-27 02:33:00,64.2,34.5,30.01,South,172,2.0,3.0,33,0.00,,---,0.00,VWS V14.01,2013-04-27 09:33:00,
2013-04-27 02:38:00,63.7,34.1,30.01,South,177,2.0,3.0,33,0.00,,---,0.00,VWS V14.01,2013-04-27 09:38:00,
2013-04-27 02:43:00,63.6,34.0,30.01,SE,135,2.0,3.0,33,0.00,,---,0.00,VWS V14.01,2013-04-27 09:43:00,
2013-04-27 02:48:00,63.2,35.1,30.01,ESE,121,2.0,3.0,35,0.00,,---,0.00,VWS V14.01,2013-04-27 09:48:00,
2013-04-27 02:53:00,61.9,35.4,30.01,ESE,121,2.0,3.0,37,0.00,,---,0.00,VWS V14.01,2013-04-27 09:53:00,
2013-04-27 02:58:00,61.2,35.4,30.01,SE,138,1.0,3.0,38,0.00,,---,0.00,VWS V14.01,2013-04-27 09:58:00,
2013-04-27 03:03:00,61.4,34.9,30.01,SSE,162,1.0,2.0,37,0.00,,---,0.00,VWS V14.01,2013-04-27 10:03:00,
2013-04-27 03:08:00,61.4,34.9,30.02,South,171,2.0,2.0,37,0.00,,---,0.00,VWS V14.01,2013-04-27 10:08:00,
2013-04-27 03:13:00,61.6,34.4,30.02,SSE,158,2.0,3.0,36,0.00,,---,0.00,VWS V14.01,2013-04-27 10:13:00,
2013-04-27 03:18:00,61.6,34.4,30.02,SE,132,1.0,3.0,36,0.00,,---,0.00,VWS V14.01,2013-04-27 10:18:00,
2013-04-27 03:23:00,61.5,34.3,30.02,SE,142,2.0,3.0,36,0.00,,---,0.00,VWS V14.01,2013-04-27 10:23:00,
2013-04-27 03:28:00,61.7,33.8,30.01,SE,134,1.0,3.0,35,0.00,,---,0.00,VWS V14.01,2013-04-27 10:28:00,
2013-04-27 03:33:00,62.1,34.2,30.02,SE,131,2.0,3.0,35,0.00,,---,0.00,VWS V14.01,2013-04-27 10:33:00,
2013-04-27 03:38:00,61.5,34.3,30.02,SE,124,2.0,3.0,36,0.00,,---,0.00,VWS V14.01,2013-04-27 10:38:00,
2013-04-27 03:43:00,61.8,33.9,30.02,SE,134,1.0,3.0,35,0.00,,---,0.00,VWS V14.01,2013-04-27 10:43:00,
2013-04-27 03:48:00,61.8,33.9,30.02,SE,133,1.0,3.0,35,0.00,,---,0.00,VWS V14.01,2013-04-27 10:48:00,
2013-04-27 03:53:00,61.3,34.8,30.02,ESE,108,2.0,3.0,37,0.00,,---,0.00,VWS V14.01,2013-04-27 10:53:00,
2013-04-27 03:58:00,60.3,33.9,30.02,ESE,117,1.0,3.0,37,0.00,,---,0.00,VWS V14.01,2013-04-27 10:58:00,
2013-04-27 04:03:00,60.3,33.9,30.02,ESE,121,1.0,2.0,37,0.00,,---,0.00,VWS V14.01,2013-04-27 11:03:00,
2013-04-27 04:08:00,59.7,34.1,30.02,ESE,122,1.0,2.0,38,0.00,,---,0.00,VWS V14.01,2013-04-27 11:08:00,
2013-04-27 04:13:00,59.8,33.5,30.02,SE,128,1.0,2.0,37,0.00,,---,0.00,VWS V14.01,2013-04-27 11:13:00,
2013-04-27 04:18:00,60.2,33.2,30.02,SE,132,2.0,2.0,36,0.00,,---,0.00,VWS V14.01,2013-04-27 11:18:00,
2013-04-27 04:23:00,60.0,33.7,30.02,SE,131,1.0,2.0,37,0.00,,---,0.00,VWS V14.01,2013-04-27 11:23:00,
2013-04-27 04:29:00,59.6,33.3,30.02,SE,131,1.0,2.0,37,0.00,,---,0.00,VWS V14.01,2013-04-27 11:29:00,
2013-04-27 04:34:00,60.1,33.8,30.02,SE,141,1.0,2.0,37,0.00,,---,0.00,VWS V14.01,2013-04-27 11:34:00,
2013-04-27 04:39:00,60.0,33.7,30.02,SE,142,1.0,2.0,37,0.00,,---,0.00,VWS V14.01,2013-04-27 11:39:00,
2013-04-27 04:44:00,59.7,34.1,30.02,SE,142,1.0,2.0,38,0.00,,---,0.00,VWS V14.01,2013-04-27 11:44:00,
2013-04-27 04:49:00,59.3,34.4,30.02,SE,143,0.0,2.0,39,0.00,,---,0.00,VWS V14.01,2013-04-27 11:49:00,
2013-04-27 04:54:00,59.0,34.1,30.02,SE,140,0.0,2.0,39,0.00,,---,0.00,VWS V14.01,2013-04-27 11:54:00,
2013-04-27 04:59:00,58.7,33.8,30.02,ESE,115,2.0,2.0,39,0.00,,---,0.00,VWS V14.01,2013-04-27 11:59:00,
2013-04-27 05:04:00,60.5,34.1,30.02,SE,136,1.0,2.0,37,0.00,,---,0.00,VWS V14.01,2013-04-27 12:04:00,
2013-04-27 05:09:00,60.2,33.8,30.02,SE,134,0.0,2.0,37,0.00,,---,0.00,VWS V14.01,2013-04-27 12:09:00,
2013-04-27 05:14:00,59.4,34.5,30.02,SSE,164,2.0,2.0,39,0.00,,---,0.00,VWS V14.01,2013-04-27 12:14:00,
2013-04-27 05:19:00,58.0,35.1,30.02,SSE,165,2.0,2.0,42,0.00,,---,0.00,VWS V14.01,2013-04-27 12:19:00,
2013-04-27 05:24:00,57.1,35.4,30.02,SSE,158,0.0,2.0,44,0.00,,---,0.00,VWS V14.01,2013-04-27 12:24:00,
2013-04-27 05:29:00,56.5,34.9,30.03,SSE,150,1.0,2.0,44,0.00,,---,0.00,VWS V14.01,2013-04-27 12:29:00,
2013-04-27 05:34:00,57.0,34.8,30.03,SE,142,1.0,2.0,43,0.00,,---,0.00,VWS V14.01,2013-04-27 12:34:00,
2013-04-27 05:39:00,57.3,35.0,30.03,SE,143,0.0,2.0,43,0.00,,---,0.00,VWS V14.01,2013-04-27 12:39:00,
2013-04-27 05:44:00,56.7,35.0,30.03,SE,142,0.0,2.0,44,0.00,,---,0.00,VWS V14.01,2013-04-27 12:44:00,
2013-04-27 05:49:00,56.2,34.0,30.03,SE,142,0.0,2.0,43,0.00,,---,0.00,VWS V14.01,2013-04-27 12:49:00,
2013-04-27 05:54:00,57.2,34.3,30.04,SE,142,0.0,2.0,42,0.00,,---,0.00,VWS V14.01,2013-04-27 12:54:00,
2013-04-27 05:59:00,57.8,34.3,30.04,ESE,113,0.0,2.0,41,0.00,,---,0.00,VWS V14.01,2013-04-27 12:59:00,
2013-04-27 06:04:00,57.5,34.0,30.04,WSW,250,0.0,0.0,41,0.00,,---,0.00,VWS V14.01,2013-04-27 13:04:00,
2013-04-27 06:09:00,58.2,34.6,30.04,SE,128,0.0,2.0,41,0.00,,---,0.00,VWS V14.01,2013-04-27 13:09:00,
2013-04-27 06:14:00,57.6,34.7,30.04,SSE,163,1.0,2.0,42,0.00,,---,0.00,VWS V14.01,2013-04-27 13:14:00,
2013-04-27 06:19:00,56.8,35.1,30.05,SSW,200,2.0,2.0,44,0.00,,---,0.00,VWS V14.01,2013-04-27 13:19:00,
2013-04-27 06:24:00,56.5,35.4,30.05,South,184,2.0,4.0,45,0.00,,---,0.00,VWS V14.01,2013-04-27 13:24:00,
2013-04-27 06:29:00,57.0,35.3,30.05,SSW,203,1.0,4.0,44,0.00,,---,0.00,VWS V14.01,2013-04-27 13:29:00,
2013-04-27 06:34:00,57.8,34.9,30.05,SSE,161,1.0,4.0,42,0.00,,---,0.00,VWS V14.01,2013-04-27 13:34:00,
2013-04-27 06:39:00,59.1,35.4,30.05,SSE,158,2.0,4.0,41,0.00,,---,0.00,VWS V14.01,2013-04-27 13:39:00,
2013-04-27 06:44:00,60.2,35.2,30.05,SSE,148,2.0,4.0,39,0.00,,---,0.00,VWS V14.01,2013-04-27 13:44:00,
2013-04-27 06:49:00,60.8,35.7,30.06,SSE,164,2.0,4.0,39,0.00,,---,0.00,VWS V14.01,2013-04-27 13:49:00,
2013-04-27 06:54:00,60.7,35.6,30.06,SSE,165,0.0,4.0,39,0.00,,---,0.00,VWS V14.01,2013-04-27 13:54:00,
2013-04-27 06:59:00,60.7,36.3,30.06,SSE,163,0.0,0.0,40,0.00,,---,0.00,VWS V14.01,2013-04-27 13:59:00,
2013-04-27 07:04:00,61.4,36.2,30.06,SSE,155,0.0,0.0,39,0.00,,---,0.00,VWS V14.01,2013-04-27 14:04:00,
2013-04-27 07:09:00,62.2,37.0,30.06,SSE,161,1.0,2.0,39,0.00,,---,0.00,VWS V14.01,2013-04-27 14:09:00,
2013-04-27 07:14:00,62.8,37.5,30.06,SSE,155,1.0,3.0,39,0.00,,---,0.00,VWS V14.01,2013-04-27 14:14:00,
2013-04-27 07:19:00,63.4,38.0,30.06,SE,145,3.0,3.0,39,0.00,,---,0.00,VWS V14.01,2013-04-27 14:19:00,
2013-04-27 07:24:00,64.1,38.0,30.06,SSE,152,2.0,3.0,38,0.00,,---,0.00,VWS V14.01,2013-04-27 14:24:00,
2013-04-27 07:29:00,64.9,38.7,30.06,SE,131,0.0,3.0,38,0.00,,---,0.00,VWS V14.01,2013-04-27 14:29:00,
2013-04-27 07:34:00,65.6,38.7,30.06,SE,128,0.0,3.0,37,0.00,,---,0.00,VWS V14.01,2013-04-27 14:34:00,
2013-04-27 07:40:00,66.1,38.4,30.06,East,93,2.0,3.0,36,0.00,,---,0.00,VWS V14.01,2013-04-27 14:40:00,
2013-04-27 07:45:00,66.4,38.7,30.06,East,97,2.0,3.0,36,0.00,,---,0.00,VWS V14.01,2013-04-27 14:45:00,
2013-04-27 07:50:00,66.5,39.5,30.06,ENE,77,3.0,4.0,37,0.00,,---,0.00,VWS V14.01,2013-04-27 14:50:00,
2013-04-27 07:55:00,66.6,38.1,30.06,East,89,2.0,4.0,35,0.00,,---,0.00,VWS V14.01,2013-04-27 14:55:00,
2013-04-27 08:00:00,67.2,37.9,30.06,ESE,115,4.0,4.0,34,0.00,,---,0.00,VWS V14.01,2013-04-27 15:00:00,
2013-04-27 08:05:00,68.0,37.8,30.06,ESE,112,2.0,4.0,33,0.00,,---,0.00,VWS V14.01,2013-04-27 15:05:00,
2013-04-27 08:10:00,68.9,37.0,30.06,East,92,3.0,4.0,31,0.00,,---,0.00,VWS V14.01,2013-04-27 15:10:00,
2013-04-27 08:15:00,69.3,36.6,30.06,East,101,3.0,4.0,30,0.00,,---,0.00,VWS V14.01,2013-04-27 15:15:00,
2013-04-27 08:20:00,69.6,36.8,30.06,East,91,2.0,4.0,30,0.00,,---,0.00,VWS V14.01,2013-04-27 15:20:00,
2013-04-27 08:25:00,70.2,37.3,30.06,SE,124,1.0,4.0,30,0.00,,---,0.00,VWS V14.01,2013-04-27 15:25:00,
2013-04-27 08:30:00,71.1,37.3,30.06,ESE,110,0.0,4.0,29,0.00,,---,0.00,VWS V14.01,2013-04-27 15:30:00,
2013-04-27 08:35:00,71.6,36.8,30.06,ENE,69,0.0,4.0,28,0.00,,---,0.00,VWS V14.01,2013-04-27 15:35:00,
2013-04-27 08:40:00,72.4,36.6,30.06,ENE,67,2.0,4.0,27,0.00,,---,0.00,VWS V14.01,2013-04-27 15:40:00,
2013-04-27 08:45:00,72.7,35.9,30.06,East,96,0.0,4.0,26,0.00,,---,0.00,VWS V14.01,2013-04-27 15:45:00,
2013-04-27 08:50:00,73.5,35.6,30.06,ENE,67,1.0,4.0,25,0.00,,---,0.00,VWS V14.01,2013-04-27 15:50:00,
2013-04-27 08:55:00,73.8,34.8,30.06,ESE,104,0.0,4.0,24,0.00,,---,0.00,VWS V14.01,2013-04-27 15:55:00,
2013-04-27 09:00:00,75.2,36.0,30.06,SSE,165,0.0,1.0,24,0.00,,---,0.00,VWS V14.01,2013-04-27 16:00:00,
2013-04-27 09:05:00,76.6,36.1,30.06,SSE,165,0.0,1.0,23,0.00,,---,0.00,VWS V14.01,2013-04-27 16:05:00,
2013-04-27 09:10:00,77.8,36.0,30.05,SSW,192,0.0,1.0,22,0.00,,---,0.00,VWS V14.01,2013-04-27 16:10:00,
2013-04-27 09:15:00,77.4,35.6,30.05,SSE,148,1.0,1.0,22,0.00,,---,0.00,VWS V14.01,2013-04-27 16:15:00,
2013-04-27 09:20:00,77.9,34.9,30.05,SE,141,0.0,1.0,21,0.00,,---,0.00,VWS V14.01,2013-04-27 16:20:00,
2013-04-27 09:25:00,77.8,36.0,30.05,NNE,18,0.0,2.0,22,0.00,,---,0.00,VWS V14.01,2013-04-27 16:25:00,
2013-04-27 09:30:00,77.6,34.6,30.05,SSE,160,2.0,3.0,21,0.00,,---,0.00,VWS V14.01,2013-04-27 16:30:00,
2013-04-27 09:35:00,77.9,36.0,30.05,SE,125,0.0,3.0,22,0.00,,---,0.00,VWS V14.01,2013-04-27 16:35:00,
2013-04-27 09:40:00,77.9,33.6,30.05,NNW,329,1.0,4.0,20,0.00,,---,0.00,VWS V14.01,2013-04-27 16:40:00,
2013-04-27 09:45:00,77.4,34.5,30.05,NNE,23,1.0,4.0,21,0.00,,---,0.00,VWS V14.01,2013-04-27 16:45:00,
2013-04-27 09:50:00,77.8,34.8,30.05,SSW,211,0.0,4.0,21,0.00,,---,0.00,VWS V14.01,2013-04-27 16:50:00,
2013-04-27 09:55:00,79.2,34.7,30.05,ESE,103,0.0,4.0,20,0.00,,---,0.00,VWS V14.01,2013-04-27 16:55:00,
2013-04-27 10:00:00,79.3,34.8,30.05,West,279,1.0,2.0,20,0.00,,---,0.00,VWS V14.01,2013-04-27 17:00:00,
2013-04-27 10:05:00,78.6,35.4,30.05,ESE,118,3.0,3.0,21,0.00,,---,0.00,VWS V14.01,2013-04-27 17:05:00,
2013-04-27 10:10:00,78.9,34.5,30.05,WSW,252,1.0,3.0,20,0.00,,---,0.00,VWS V14.01,2013-04-27 17:10:00,
2013-04-27 10:15:00,78.8,35.6,30.05,South,184,0.0,3.0,21,0.00,,---,0.00,VWS V14.01,2013-04-27 17:15:00,
2013-04-27 10:20:00,79.9,35.3,30.05,East,82,4.0,5.0,20,0.00,,---,0.00,VWS V14.01,2013-04-27 17:20:00,
2013-04-27 10:25:00,79.6,35.0,30.05,SE,124,5.0,6.0,20,0.00,,---,0.00,VWS V14.01,2013-04-27 17:25:00,
2013-04-27 10:30:00,79.9,36.5,30.05,SSE,165,0.0,6.0,21,0.00,,---,0.00,VWS V14.01,2013-04-27 17:30:00,
2013-04-27 10:35:00,80.8,36.0,30.05,ENE,77,4.0,6.0,20,0.00,,---,0.00,VWS V14.01,2013-04-27 17:35:00,
2013-04-27 10:40:00,80.3,35.6,30.05,ESE,110,2.0,6.0,20,0.00,,---,0.00,VWS V14.01,2013-04-27 17:40:00,
2013-04-27 10:45:00,80.8,36.0,30.05,ESE,107,0.0,6.0,20,0.00,,---,0.00,VWS V14.01,2013-04-27 17:45:00,
2013-04-27 10:50:00,81.6,35.4,30.05,ESE,121,3.0,8.0,19,0.00,,---,0.00,VWS V14.01,2013-04-27 17:50:00,
2013-04-27 10:55:00,81.9,35.6,30.05,ENE,64,2.0,8.0,19,0.00,,---,0.00,VWS V14.01,2013-04-27 17:55:00,
2013-04-27 11:00:00,81.3,35.1,30.05,ENE,67,4.0,7.0,19,0.00,,---,0.00,VWS V14.01,2013-04-27 18:00:00,
2013-04-27 11:05:00,81.2,35.1,30.04,NNE,27,4.0,7.0,19,0.00,,---,0.00,VWS V14.01,2013-04-27 18:05:00,
2013-04-27 11:10:00,80.9,34.8,30.04,NNE,26,5.0,7.0,19,0.00,,---,0.00,VWS V14.01,2013-04-27 18:10:00,
2013-04-27 11:15:00,81.0,34.9,30.04,NE,44,4.0,8.0,19,0.00,,---,0.00,VWS V14.01,2013-04-27 18:15:00,
2013-04-27 11:20:00,81.2,35.1,30.04,NE,39,1.0,9.0,19,0.00,,---,0.00,VWS V14.01,2013-04-27 18:20:00,
2013-04-27 11:25:00,82.5,34.8,30.04,WSW,242,3.0,9.0,18,0.00,,---,0.00,VWS V14.01,2013-04-27 18:25:00,
2013-04-27 11:30:00,83.0,35.2,30.04,ENE,72,3.0,9.0,18,0.00,,---,0.00,VWS V14.01,2013-04-27 18:30:00,
2013-04-27 11:35:00,83.4,31.0,30.03,ESE,104,7.0,12.0,15,0.00,,---,0.00,VWS V14.01,2013-04-27 18:35:00,
2013-04-27 11:40:00,82.9,32.2,30.03,NE,46,3.0,12.0,16,0.00,,---,0.00,VWS V14.01,2013-04-27 18:40:00,
2013-04-27 11:45:00,82.6,31.9,30.03,NE,44,5.0,12.0,16,0.00,,---,0.00,VWS V14.01,2013-04-27 18:45:00,
2013-04-27 11:50:00,82.7,33.5,30.03,NE,41,7.0,12.0,17,0.00,,---,0.00,VWS V14.01,2013-04-27 18:50:00,
2013-04-27 11:55:00,82.8,33.6,30.03,NE,40,4.0,12.0,17,0.00,,---,0.00,VWS V14.01,2013-04-27 18:55:00,
2013-04-27 12:00:00,82.9,33.7,30.03,WNW,294,0.0,2.0,17,0.00,,---,0.00,VWS V14.01,2013-04-27 19:00:00,
2013-04-27 12:05:00,83.6,32.7,30.02,ENE,77,6.0,10.0,16,0.00,,---,0.00,VWS V14.01,2013-04-27 19:05:00,
2013-04-27 12:10:00,83.7,32.8,30.02,NE,53,7.0,10.0,16,0.00,,---,0.00,VWS V14.01,2013-04-27 19:10:00,
2013-04-27 12:15:00,83.4,32.5,30.02,NNE,33,3.0,10.0,16,0.00,,---,0.00,VWS V14.01,2013-04-27 19:15:00,
2013-04-27 12:20:00,83.7,32.8,30.01,NE,51,11.0,11.0,16,0.00,,---,0.00,VWS V14.01,2013-04-27 19:20:00,
2013-04-27 12:25:00,83.7,31.2,30.01,ENE,63,4.0,13.0,15,0.00,,---,0.00,VWS V14.01,2013-04-27 19:25:00,
2013-04-27 12:30:00,85.0,32.2,30.01,SE,127,6.0,13.0,15,0.00,,---,0.00,VWS V14.01,2013-04-27 19:30:00,
2013-04-27 12:35:00,85.3,32.5,30.01,ENE,77,9.0,13.0,15,0.00,,---,0.00,VWS V14.01,2013-04-27 19:35:00,
2013-04-27 12:40:00,84.3,31.7,30.00,SE,134,1.0,13.0,15,0.00,,---,0.00,VWS V14.01,2013-04-27 19:40:00,
2013-04-27 12:45:00,84.4,31.8,30.00,East,88,3.0,13.0,15,0.00,,---,0.00,VWS V14.01,2013-04-27 19:45:00,
2013-04-27 12:50:00,85.3,34.1,30.00,SSE,168,0.0,13.0,16,0.00,,---,0.00,VWS V14.01,2013-04-27 19:50:00,
2013-04-27 12:55:00,86.3,29.7,30.00,North,359,2.0,13.0,13,0.00,,---,0.00,VWS V14.01,2013-04-27 19:55:00,
2013-04-27 13:00:00,86.6,31.8,29.99,East,98,6.0,7.0,14,0.00,,---,0.00,VWS V14.01,2013-04-27 20:00:00,
2013-04-27 13:05:00,86.7,30.0,29.99,NE,44,6.0,10.0,13,0.00,,---,0.00,VWS V14.01,2013-04-27 20:05:00,
2013-04-27 13:10:00,86.2,29.6,29.99,ENE,64,3.0,12.0,13,0.00,,---,0.00,VWS V14.01,2013-04-27 20:10:00,
2013-04-27 13:15:00,85.7,31.1,29.99,WSW,252,0.0,13.0,14,0.00,,---,0.00,VWS V14.01,2013-04-27 20:15:00,
2013-04-27 13:20:00,86.3,31.5,29.99,NE,50,3.0,13.0,14,0.00,,---,0.00,VWS V14.01,2013-04-27 20:20:00,
2013-04-27 13:25:00,86.8,26.0,29.98,ENE,59,4.0,13.0,11,0.00,,---,0.00,VWS V14.01,2013-04-27 20:25:00,
2013-04-27 13:30:00,86.9,26.1,29.98,WSW,248,1.0,13.0,11,0.00,,---,0.00,VWS V14.01,2013-04-27 20:30:00,
2013-04-27 13:35:00,86.9,26.1,29.98,WNW,303,4.0,13.0,11,0.00,,---,0.00,VWS V14.01,2013-04-27 20:35:00,
2013-04-27 13:41:00,86.9,26.1,29.98,East,94,2.0,13.0,11,0.00,,---,0.00,VWS V14.01,2013-04-27 20:41:00,
2013-04-27 13:46:00,86.8,23.8,29.97,North,8,0.0,13.0,10,0.00,,---,0.00,VWS V14.01,2013-04-27 20:46:00,
2013-04-27 13:51:00,86.8,21.3,29.97,WNW,288,1.0,13.0,9,0.00,,---,0.00,VWS V14.01,2013-04-27 20:51:00,
2013-04-27 13:56:00,88.0,24.7,29.97,SE,139,0.0,13.0,10,0.00,,---,0.00,VWS V14.01,2013-04-27 20:56:00,
2013-04-27 14:01:00,88.3,24.9,29.96,NW,313,4.0,10.0,10,0.00,,---,0.00,VWS V14.01,2013-04-27 21:01:00,
2013-04-27 14:06:00,87.6,21.9,29.96,NNE,26,9.0,12.0,9,0.00,,---,0.00,VWS V14.01,2013-04-27 21:06:00,
2013-04-27 14:11:00,87.4,21.7,29.96,ENE,57,5.0,12.0,9,0.00,,---,0.00,VWS V14.01,2013-04-27 21:11:00,
2013-04-27 14:16:00,87.2,18.8,29.96,ENE,65,1.0,12.0,8,0.00,,---,0.00,VWS V14.01,2013-04-27 21:16:00,
2013-04-27 14:21:00,87.5,19.0,29.95,WNW,302,9.0,12.0,8,0.00,,---,0.00,VWS V14.01,2013-04-27 21:21:00,
2013-04-27 14:26:00,87.2,21.6,29.95,WSW,249,4.0,12.0,9,0.00,,---,0.00,VWS V14.01,2013-04-27 21:26:00,
2013-04-27 14:31:00,87.5,21.8,29.95,NNE,32,8.0,12.0,9,0.00,,---,0.00,VWS V14.01,2013-04-27 21:31:00,
2013-04-27 14:36:00,87.1,18.7,29.95,SW,228,1.0,12.0,8,0.00,,---,0.00,VWS V14.01,2013-04-27 21:36:00,
2013-04-27 14:41:00,87.5,19.0,29.95,NNW,342,3.0,14.0,8,0.00,,---,0.00,VWS V14.01,2013-04-27 21:41:00,
2013-04-27 14:46:00,87.6,19.1,29.94,SSW,195,1.0,14.0,8,0.00,,---,0.00,VWS V14.01,2013-04-27 21:46:00,
2013-04-27 14:51:00,88.1,19.5,29.94,SW,233,4.0,14.0,8,0.00,,---,0.00,VWS V14.01,2013-04-27 21:51:00,
2013-04-27 14:56:00,88.6,19.8,29.94,ENE,77,1.0,14.0,8,0.00,,---,0.00,VWS V14.01,2013-04-27 21:56:00,
2013-04-27 15:01:00,89.4,23.2,29.93,SE,135,0.0,3.0,9,0.00,,---,0.00,VWS V14.01,2013-04-27 22:01:00,
2013-04-27 15:06:00,89.7,20.6,29.93,West,264,4.0,7.0,8,0.00,,---,0.00,VWS V14.01,2013-04-27 22:06:00,
2013-04-27 15:11:00,88.8,22.8,29.93,WSW,252,5.0,8.0,9,0.00,,---,0.00,VWS V14.01,2013-04-27 22:11:00,
2013-04-27 15:16:00,88.7,22.7,29.92,SSW,207,0.0,8.0,9,0.00,,---,0.00,VWS V14.01,2013-04-27 22:16:00,
2013-04-27 15:21:00,89.7,20.6,29.92,NNE,32,7.0,9.0,8,0.00,,---,0.00,VWS V14.01,2013-04-27 22:21:00,
2013-04-27 15:26:00,89.1,20.2,29.92,NE,36,4.0,10.0,8,0.00,,---,0.00,VWS V14.01,2013-04-27 22:26:00,
2013-04-27 15:31:00,89.1,20.2,29.92,NE,42,2.0,10.0,8,0.00,,---,0.00,VWS V14.01,2013-04-27 22:31:00,
2013-04-27 15:36:00,89.1,23.0,29.92,SSE,158,0.0,10.0,9,0.00,,---,0.00,VWS V14.01,2013-04-27 22:36:00,
2013-04-27 15:41:00,89.5,20.5,29.91,SE,129,3.0,10.0,8,0.00,,---,0.00,VWS V14.01,2013-04-27 22:41:00,
2013-04-27 15:46:00,89.1,20.2,29.91,NE,45,3.0,11.0,8,0.00,,---,0.00,VWS V14.01,2013-04-27 22:46:00,
2013-04-27 15:51:00,89.3,20.4,29.91,SSE,150,1.0,11.0,8,0.00,,---,0.00,VWS V14.01,2013-04-27 22:51:00,
2013-04-27 15:56:00,90.0,20.9,29.91,SE,124,0.0,11.0,8,0.00,,---,0.00,VWS V14.01,2013-04-27 22:56:00,
2013-04-27 16:01:00,90.5,18.1,29.91,WSW,249,4.0,8.0,7,0.00,,---,0.00,VWS V14.01,2013-04-27 23:01:00,
2013-04-27 16:06:00,90.6,21.3,29.90,NE,53,1.0,8.0,8,0.00,,---,0.00,VWS V14.01,2013-04-27 23:06:00,
2013-04-27 16:11:00,90.6,21.3,29.90,South,177,1.0,8.0,8,0.00,,---,0.00,VWS V14.01,2013-04-27 23:11:00,
2013-04-27 16:16:00,91.3,24.6,29.90,WSW,255,1.0,8.0,9,0.00,,---,0.00,VWS V14.01,2013-04-27 23:16:00,
2013-04-27 16:21:00,91.7,22.1,29.90,WNW,288,3.0,8.0,8,0.00,,---,0.00,VWS V14.01,2013-04-27 23:21:00,
2013-04-27 16:26:00,90.6,21.3,29.90,West,279,2.0,8.0,8,0.00,,---,0.00,VWS V14.01,2013-04-27 23:26:00,
2013-04-27 16:31:00,90.2,21.0,29.90,WSW,255,2.0,8.0,8,0.00,,---,0.00,VWS V14.01,2013-04-27 23:31:00,
2013-04-27 16:36:00,90.9,24.3,29.89,WSW,238,3.0,8.0,9,0.00,,---,0.00,VWS V14.01,2013-04-27 23:36:00,
2013-04-27 16:41:00,90.9,21.5,29.89,SSW,201,3.0,9.0,8,0.00,,---,0.00,VWS V14.01,2013-04-27 23:41:00,
2013-04-27 16:46:00,90.9,21.5,29.89,SSE,162,3.0,9.0,8,0.00,,---,0.00,VWS V14.01,2013-04-27 23:46:00,
2013-04-27 16:51:00,90.7,21.4,29.89,ESE,104,2.0,9.0,8,0.00,,---,0.00,VWS V14.01,2013-04-27 23:51:00,
2013-04-27 16:56:00,90.6,24.1,29.89,SW,229,2.0,9.0,9,0.00,,---,0.00,VWS V14.01,2013-04-27 23:56:00,
2013-04-27 17:01:00,89.9,23.6,29.89,West,263,5.0,7.0,9,0.00,,---,0.00,VWS V14.01,2013-04-28 00:01:00,
2013-04-27 17:06:00,89.8,23.5,29.89,WSW,239,5.0,10.0,9,0.00,,---,0.00,VWS V14.01,2013-04-28 00:06:00,
2013-04-27 17:11:00,89.5,23.3,29.89,NW,307,4.0,10.0,9,0.00,,---,0.00,VWS V14.01,2013-04-28 00:11:00,
2013-04-27 17:16:00,89.4,30.2,29.88,WNW,284,12.0,13.0,12,0.00,,---,0.00,VWS V14.01,2013-04-28 00:16:00,
2013-04-27 17:21:00,89.1,33.8,29.89,West,276,5.0,18.0,14,0.00,,---,0.00,VWS V14.01,2013-04-28 00:21:00,
2013-04-27 17:26:00,88.5,35.0,29.89,West,278,3.0,18.0,15,0.00,,---,0.00,VWS V14.01,2013-04-28 00:26:00,
2013-04-27 17:31:00,88.1,34.7,29.89,South,191,13.0,18.0,15,0.00,,---,0.00,VWS V14.01,2013-04-28 00:31:00,
2013-04-27 17:36:00,87.6,30.7,29.89,WNW,291,7.0,18.0,13,0.00,,---,0.00,VWS V14.01,2013-04-28 00:36:00,
2013-04-27 17:41:00,87.7,34.4,29.89,WSW,240,9.0,18.0,15,0.00,,---,0.00,VWS V14.01,2013-04-28 00:41:00,
2013-04-27 17:46:00,87.2,32.3,29.89,West,267,14.0,21.0,14,0.00,,---,0.00,VWS V14.01,2013-04-28 00:46:00,
2013-04-27 17:51:00,86.7,31.9,29.89,SW,217,6.0,21.0,14,0.00,,---,0.00,VWS V14.01,2013-04-28 00:51:00,
2013-04-27 17:56:00,86.6,35.1,29.89,WNW,283,3.0,21.0,16,0.00,,---,0.00,VWS V14.01,2013-04-28 00:56:00,
2013-04-27 18:01:00,86.6,33.5,29.89,West,272,6.0,12.0,15,0.00,,---,0.00,VWS V14.01,2013-04-28 01:01:00,
2013-04-27 18:06:00,86.3,34.9,29.89,WNW,290,8.0,16.0,16,0.00,,---,0.00,VWS V14.01,2013-04-28 01:06:00,
2013-04-27 18:11:00,86.0,34.6,29.89,WSW,255,6.0,16.0,16,0.00,,---,0.00,VWS V14.01,2013-04-28 01:11:00,
2013-04-27 18:16:00,85.4,35.7,29.89,WNW,288,9.0,16.0,17,0.00,,---,0.00,VWS V14.01,2013-04-28 01:16:00,
2013-04-27 18:21:00,84.9,35.3,29.89,West,262,7.0,17.0,17,0.00,,---,0.00,VWS V14.01,2013-04-28 01:21:00,
2013-04-27 18:26:00,84.4,36.3,29.89,WNW,293,9.0,20.0,18,0.00,,---,0.00,VWS V14.01,2013-04-28 01:26:00,
2013-04-27 18:31:00,83.7,35.7,29.89,WNW,301,10.0,20.0,18,0.00,,---,0.00,VWS V14.01,2013-04-28 01:31:00,
2013-04-27 18:36:00,83.2,35.3,29.89,West,260,7.0,20.0,18,0.00,,---,0.00,VWS V14.01,2013-04-28 01:36:00,
2013-04-27 18:41:00,82.7,36.3,29.90,West,271,13.0,20.0,19,0.00,,---,0.00,VWS V14.01,2013-04-28 01:41:00,
2013-04-27 18:46:00,82.2,37.2,29.90,West,274,11.0,20.0,20,0.00,,---,0.00,VWS V14.01,2013-04-28 01:46:00,
2013-04-27 18:51:00,81.9,35.6,29.89,WNW,285,7.0,20.0,19,0.00,,---,0.00,VWS V14.01,2013-04-28 01:51:00,
2013-04-27 18:56:00,81.6,35.4,29.90,WSW,255,15.0,20.0,19,0.00,,---,0.00,VWS V14.01,2013-04-28 01:56:00,
2013-04-27 19:01:00,81.2,35.1,29.89,WNW,290,5.0,14.0,19,0.00,,---,0.00,VWS V14.01,2013-04-28 02:01:00,
2013-04-27 19:06:00,80.9,34.8,29.89,WNW,298,17.0,17.0,19,0.00,,---,0.00,VWS V14.01,2013-04-28 02:06:00,
2013-04-27 19:11:00,80.5,35.8,29.89,NW,306,7.0,18.0,20,0.00,,---,0.00,VWS V14.01,2013-04-28 02:11:00,
2013-04-27 19:16:00,80.0,35.4,29.89,West,264,19.0,19.0,20,0.00,,---,0.00,VWS V14.01,2013-04-28 02:16:00,
2013-04-27 19:21:00,79.5,36.2,29.89,WNW,297,8.0,19.0,21,0.00,,---,0.00,VWS V14.01,2013-04-28 02:21:00,
2013-04-27 19:26:00,79.0,35.8,29.89,West,274,9.0,19.0,21,0.00,,---,0.00,VWS V14.01,2013-04-28 02:26:00,
2013-04-27 19:31:00,78.6,35.4,29.89,West,272,9.0,19.0,21,0.00,,---,0.00,VWS V14.01,2013-04-28 02:31:00,
2013-04-27 19:36:00,78.4,35.3,29.89,WNW,290,3.0,19.0,21,0.00,,---,0.00,VWS V14.01,2013-04-28 02:36:00,
2013-04-27 19:41:00,78.2,35.1,29.89,WNW,300,11.0,19.0,21,0.00,,---,0.00,VWS V14.01,2013-04-28 02:41:00,
2013-04-27 19:46:00,77.8,34.8,29.89,WNW,301,16.0,19.0,21,0.00,,---,0.00,VWS V14.01,2013-04-28 02:46:00,
2013-04-27 19:52:00,77.4,35.6,29.89,WNW,297,9.0,19.0,22,0.00,,---,0.00,VWS V14.01,2013-04-28 02:52:00,
2013-04-27 19:57:00,77.1,35.4,29.89,WNW,288,8.0,19.0,22,0.00,,---,0.00,VWS V14.01,2013-04-28 02:57:00,
2013-04-27 20:02:00,77.0,35.3,29.89,WSW,245,5.0,10.0,22,0.00,,---,0.00,VWS V14.01,2013-04-28 03:02:00,
2013-04-27 20:07:00,76.7,35.0,29.89,West,278,11.0,11.0,22,0.00,,---,0.00,VWS V14.01,2013-04-28 03:07:00,
2013-04-27 20:12:00,76.6,35.0,29.89,WNW,295,8.0,12.0,22,0.00,,---,0.00,VWS V14.01,2013-04-28 03:12:00,
2013-04-27 20:17:00,76.5,34.9,29.89,West,281,6.0,14.0,22,0.00,,---,0.00,VWS V14.01,2013-04-28 03:17:00,
2013-04-27 20:22:00,76.3,35.8,29.90,West,281,3.0,14.0,23,0.00,,---,0.00,VWS V14.01,2013-04-28 03:22:00,
2013-04-27 20:27:00,76.1,35.7,29.90,WNW,284,7.0,14.0,23,0.00,,---,0.00,VWS V14.01,2013-04-28 03:27:00,
2013-04-27 20:32:00,76.0,36.6,29.90,West,267,10.0,14.0,24,0.00,,---,0.00,VWS V14.01,2013-04-28 03:32:00,
2013-04-27 20:37:00,75.9,36.5,29.90,West,279,7.0,16.0,24,0.00,,---,0.00,VWS V14.01,2013-04-28 03:37:00,
2013-04-27 20:42:00,75.8,37.5,29.90,West,263,7.0,16.0,25,0.00,,---,0.00,VWS V14.01,2013-04-28 03:42:00,
2013-04-27 20:47:00,75.6,37.3,29.90,West,277,8.0,16.0,25,0.00,,---,0.00,VWS V14.01,2013-04-28 03:47:00,
2013-04-27 20:52:00,75.5,38.2,29.91,West,276,2.0,16.0,26,0.00,,---,0.00,VWS V14.01,2013-04-28 03:52:00,
2013-04-27 20:57:00,75.4,38.2,29.91,West,280,11.0,16.0,26,0.00,,---,0.00,VWS V14.01,2013-04-28 03:57:00,
2013-04-27 21:01:00,75.2,38.0,29.91,West,281,6.0,11.0,26,0.00,,---,0.00,VWS V14.01,2013-04-28 04:01:00,
2013-04-27 21:02:00,75.3,38.1,29.91,WNW,301,4.0,14.0,26,0.00,,---,0.00,VWS V14.01,2013-04-28 04:02:00,
2013-04-27 21:03:00,75.3,38.1,29.91,WSW,256,6.0,14.0,26,0.00,,---,0.00,VWS V14.01,2013-04-28 04:03:00,
2013-04-27 21:04:00,75.3,38.1,29.91,WNW,285,9.0,14.0,26,0.00,,---,0.00,VWS V14.01,2013-04-28 04:04:00,
2013-04-27 21:06:00,75.2,38.0,29.91,West,278,3.0,14.0,26,0.00,,---,0.00,VWS V14.01,2013-04-28 04:06:00,
2013-04-27 21:11:00,75.1,37.9,29.91,WNW,285,9.0,14.0,26,0.00,,---,0.00,VWS V14.01,2013-04-28 04:11:00,
2013-04-27 21:16:00,75.0,38.8,29.91,West,281,7.0,14.0,27,0.00,,---,0.00,VWS V14.01,2013-04-28 04:16:00,
2013-04-27 21:21:00,75.0,38.8,29.91,West,280,9.0,14.0,27,0.00,,---,0.00,VWS V14.01,2013-04-28 04:21:00,
2013-04-27 21:26:00,74.8,38.6,29.91,WSW,253,8.0,14.0,27,0.00,,---,0.00,VWS V14.01,2013-04-28 04:26:00,
2013-04-27 21:31:00,74.7,38.5,29.91,West,263,7.0,14.0,27,0.00,,---,0.00,VWS V14.01,2013-04-28 04:31:00,
2013-04-27 21:36:00,74.7,38.5,29.91,West,271,7.0,14.0,27,0.00,,---,0.00,VWS V14.01,2013-04-28 04:36:00,
2013-04-27 21:41:00,74.6,37.5,29.92,West,272,3.0,14.0,26,0.00,,---,0.00,VWS V14.01,2013-04-28 04:41:00,
2013-04-27 21:46:00,74.5,37.4,29.92,West,260,3.0,14.0,26,0.00,,---,0.00,VWS V14.01,2013-04-28 04:46:00,
2013-04-27 21:51:00,74.5,37.4,29.92,West,270,8.0,14.0,26,0.00,,---,0.00,VWS V14.01,2013-04-28 04:51:00,
2013-04-27 21:56:00,74.4,36.3,29.92,West,263,2.0,14.0,25,0.00,,---,0.00,VWS V14.01,2013-04-28 04:56:00,
2013-04-27 22:01:00,74.3,36.2,29.92,WNW,288,5.0,10.0,25,0.00,,---,0.00,VWS V14.01,2013-04-28 05:01:00,
2013-04-27 22:06:00,74.2,36.2,29.92,WNW,294,8.0,13.0,25,0.00,,---,0.00,VWS V14.01,2013-04-28 05:06:00,
2013-04-27 22:11:00,74.2,36.2,29.92,West,266,3.0,13.0,25,0.00,,---,0.00,VWS V14.01,2013-04-28 05:11:00,
2013-04-27 22:16:00,74.2,36.2,29.92,West,270,7.0,14.0,25,0.00,,---,0.00,VWS V14.01,2013-04-28 05:16:00,
2013-04-27 22:21:00,74.0,37.0,29.92,NW,308,5.0,14.0,26,0.00,,---,0.00,VWS V14.01,2013-04-28 05:21:00,
2013-04-27 22:26:00,74.0,37.0,29.92,West,281,4.0,14.0,26,0.00,,---,0.00,VWS V14.01,2013-04-28 05:26:00,
2013-04-27 22:31:00,73.9,35.9,29.92,WSW,240,8.0,14.0,25,0.00,,---,0.00,VWS V14.01,2013-04-28 05:31:00,
2013-04-27 22:36:00,74.0,36.0,29.92,WSW,257,5.0,14.0,25,0.00,,---,0.00,VWS V14.01,2013-04-28 05:36:00,
2013-04-27 22:41:00,74.0,36.0,29.91,WSW,240,2.0,14.0,25,0.00,,---,0.00,VWS V14.01,2013-04-28 05:41:00,
2013-04-27 22:46:00,73.9,35.9,29.91,NW,307,6.0,14.0,25,0.00,,---,0.00,VWS V14.01,2013-04-28 05:46:00,
2013-04-27 22:51:00,73.7,36.7,29.91,WSW,253,6.0,14.0,26,0.00,,---,0.00,VWS V14.01,2013-04-28 05:51:00,
2013-04-27 22:56:00,73.7,36.7,29.91,WSW,257,7.0,14.0,26,0.00,,---,0.00,VWS V14.01,2013-04-28 05:56:00,
2013-04-27 23:01:00,73.7,36.7,29.91,WNW,283,3.0,9.0,26,0.00,,---,0.00,VWS V14.01,2013-04-28 06:01:00,
2013-04-27 23:06:00,73.6,35.6,29.91,West,279,5.0,9.0,25,0.00,,---,0.00,VWS V14.01,2013-04-28 06:06:00,
2013-04-27 23:11:00,73.5,35.6,29.91,West,270,7.0,9.0,25,0.00,,---,0.00,VWS V14.01,2013-04-28 06:11:00,
2013-04-27 23:16:00,73.6,35.6,29.91,West,281,9.0,12.0,25,0.00,,---,0.00,VWS V14.01,2013-04-28 06:16:00,
2013-04-27 23:21:00,73.7,35.7,29.91,West,259,4.0,12.0,25,0.00,,---,0.00,VWS V14.01,2013-04-28 06:21:00,
2013-04-27 23:26:00,73.6,35.6,29.91,WSW,243,8.0,12.0,25,0.00,,---,0.00,VWS V14.01,2013-04-28 06:26:00,
2013-04-27 23:31:00,73.6,35.6,29.91,WNW,293,4.0,12.0,25,0.00,,---,0.00,VWS V14.01,2013-04-28 06:31:00,
2013-04-27 23:36:00,73.5,35.6,29.91,West,260,3.0,12.0,25,0.00,,---,0.00,VWS V14.01,2013-04-28 06:36:00,
2013-04-27 23:41:00,73.3,35.4,29.90,WSW,256,3.0,12.0,25,0.00,,---,0.00,VWS V14.01,2013-04-28 06:41:00,
2013-04-27 23:46:00,73.5,35.6,29.90,WSW,240,3.0,12.0,25,0.00,,---,0.00,VWS V14.01,2013-04-28 06:46:00,
2013-04-27 23:51:00,73.6,35.6,29.90,WSW,253,6.0,12.0,25,0.00,,---,0.00,VWS V14.01,2013-04-28 06:51:00,
2013-04-27 23:56:00,73.5,35.6,29.90,West,271,4.0,12.0,25,0.00,,---,0.00,VWS V14.01,2013-04-28 06:56:00,